• Join FlightAware (Why Join?)
  • Login
  • US Flag 
01:24AM EST


 

Airport Tracker/Info


-or-


 

Live Flight TrackerFlight Track Log ✈ N2315W ✈ 30-Jul-2013 ✈ KPDK - KSSI

Flight Track Log - Related Links

Times and Time Zones

All times are in EDT time to prevent confusion due to time zone crossing. See the N2315W flight status page for this flight to view local times or setup timezone preferences in your user account.

Time Position Orientation Groundspeed Altitude Reporting Facility
EDT Latitude Longitude Course Direction KTS MPH feet Rate Location/Type
06:40PM 33.9000 -84.3000 90° East 92 106 1,800  Level Atlanta TRACON
06:41PM 33.9000 -84.2667 90° East 92 106 2,500 720 Climbing Atlanta TRACON
06:42PM 33.9000 -84.2333 90° East 98 113 3,300 660 Climbing Atlanta TRACON
06:43PM 33.9000 -84.2000 90° East 93 107 3,900 540 Climbing Atlanta TRACON
06:44PM 33.9000 -84.1667 90° East 93 107 4,500 540 Climbing Atlanta TRACON
06:45PM 33.9000 -84.1333 90° East 100 115 5,000 180 Climbing Atlanta TRACON
06:46PM 33.9000 -84.1000 90° East 133 153 5,000  Level Atlanta TRACON
06:47PM 33.8833 -84.0500 112° Southeast 140 161 5,000  Level Atlanta TRACON
06:48PM 33.8833 -84.0167 90° East 142 163 5,000  Level Atlanta TRACON
06:49PM 33.8667 -83.9667 112° Southeast 145 167 5,000  Level Atlanta TRACON
06:50PM 33.8500 -83.9167 112° Southeast 138 159 5,100 300 Climbing Atlanta TRACON
06:51PM 33.8500 -83.8833 90° East 120 138 5,600 420 Climbing Atlanta TRACON
06:52PM 33.8167 -83.8500 140° Southeast 118 136 6,000 420 Climbing Atlanta TRACON
06:53PM 33.8000 -83.8333 140° Southeast 114 131 6,500 420 Climbing Atlanta TRACON
06:54PM 33.7833 -83.8000 121° Southeast 114 131 6,900 240 Climbing Atlanta TRACON
06:55PM 33.7667 -83.7667 121° Southeast 131 151 7,000  Climbing Atlanta TRACON
06:56PM 33.7333 -83.7333 140° Southeast 147 169 7,000  Level Atlanta TRACON
06:57PM 33.7167 -83.6833 112° Southeast 152 175 7,000  Level Atlanta TRACON
06:58PM 33.6833 -83.6500 140° Southeast 155 178 7,000  Level Atlanta TRACON
06:59PM 33.6667 -83.6167 121° Southeast 146 168 7,000  Level Atlanta TRACON
07:00PM 33.6333 -83.5667 129° Southeast 149 171 7,000  Level Atlanta TRACON
07:01PM 33.6167 -83.5333 121° Southeast 148 170 7,000  Level Atlanta TRACON
07:02PM 33.5833 -83.5000 140° Southeast 150 173 7,000  Level Atlanta TRACON
07:03PM 33.5667 -83.4500 112° Southeast 149 171 7,000  Level Atlanta TRACON
07:04PM 33.5333 -83.4167 140° Southeast 150 173 7,000  Level Atlanta TRACON
07:05PM 33.5167 -83.3667 112° Southeast 146 168 7,000  Level Atlanta TRACON
07:06PM 33.4833 -83.3333 140° Southeast 145 167 7,000  Level Atlanta TRACON
07:07PM 33.4667 -83.2833 112° Southeast 147 169 7,000  Level Atlanta TRACON
07:08PM 33.4333 -83.2500 140° Southeast 147 169 7,000  Level Atlanta TRACON
07:09PM 33.4167 -83.2167 121° Southeast 149 171 7,000  Level Atlanta TRACON
07:11PM 33.3996 -83.1681 113° Southeast  Level FlightAware Approximate
07:18PM 33.2693 -82.8642 129° Southeast  Level FlightAware Approximate
07:18PM 33.2086 -82.8819 129° Southeast 150 173 7,000  Level Atlanta Center
07:19PM 33.2439 -82.8273 129° Southeast  Level FlightAware Approximate
07:19PM 33.1853 -82.8450 127° Southeast 150 173 7,000  Level Atlanta Center
07:20PM 33.2185 -82.7903 129° Southeast  Level FlightAware Approximate
07:20PM 33.1578 -82.8056 130° Southeast 150 173 7,000  Level Atlanta Center
07:21PM 33.1931 -82.7534 129° Southeast  Level FlightAware Approximate
07:21PM 33.1344 -82.7661 125° Southeast 150 173 7,000  Level Atlanta Center
07:22PM 33.1677 -82.7165 129° Southeast  Level FlightAware Approximate
07:22PM 33.1089 -82.7269 128° Southeast 150 173 7,000  Level Atlanta Center
07:23PM 33.0856 -82.6875 125° Southeast 150 173 7,000  Level Atlanta Center
07:24PM 33.0600 -82.6483 128° Southeast 150 173 7,000  Level Atlanta Center
07:25PM 33.0386 -82.6139 127° Southeast 150 173 7,000  Level Atlanta Center
07:26PM 33.0133 -82.5747 128° Southeast 150 173 7,000  Level Atlanta Center
07:27PM 32.9897 -82.5356 126° Southeast 150 173 7,000  Level Atlanta Center
07:28PM 32.9642 -82.4989 130° Southeast 150 173 7,000  Level Atlanta Center
07:29PM 32.9408 -82.4597 125° Southeast 150 173 7,000  Level Atlanta Center
07:30PM 32.9175 -82.4231 127° Southeast 144 166 7,000  Level Atlanta Center
07:31PM 32.8772 -82.3558 125° Southeast 144 166 7,000  Level Jacksonville Center
07:32PM 32.8500 -82.3189 131° Southeast 144 166 7,000  Level Jacksonville Center
07:33PM 32.8269 -82.2819 127° Southeast 144 166 7,000  Level Jacksonville Center
07:34PM 32.8036 -82.2425 125° Southeast 144 166 7,000  Level Jacksonville Center
07:35PM 32.7806 -82.2058 127° Southeast 144 166 7,000  Level Jacksonville Center
07:36PM 32.7553 -82.1689 129° Southeast 144 166 7,000  Level Jacksonville Center
07:37PM 32.7322 -82.1319 127° Southeast 144 166 7,000  Level Jacksonville Center
07:38PM 32.7069 -82.0953 129° Southeast 139 160 7,000  Level Jacksonville Center
07:39PM 32.6836 -82.0558 125° Southeast 139 160 7,000  Level Jacksonville Center
07:40PM 32.6603 -82.0192 127° Southeast 139 160 7,000  Level Jacksonville Center
07:41PM 32.6331 -81.9847 133° Southeast 139 160 7,000  Level Jacksonville Center
07:42PM 32.6078 -81.9456 127° Southeast 139 160 7,000  Level Jacksonville Center
07:43PM 32.5886 -81.9136 125° Southeast 133 153 7,000  Level Jacksonville Center
07:44PM 32.5611 -81.8697 127° Southeast 139 160 7,000  Level Jacksonville Center
07:45PM 32.5358 -81.8356 131° Southeast 139 160 7,000  Level Jacksonville Center
07:46PM 32.5125 -81.7986 127° Southeast 134 154 7,000  Level Jacksonville Center
07:47PM 32.4914 -81.7644 126° Southeast 134 154 7,000  Level Jacksonville Center
07:48PM 32.4681 -81.7278 127° Southeast 134 154 7,000  Level Jacksonville Center
07:49PM 32.4428 -81.6889 128° Southeast 134 154 7,000  Level Jacksonville Center
07:50PM 32.4172 -81.6497 128° Southeast 134 154 7,000  Level Jacksonville Center
07:51PM 32.3919 -81.6156 131° Southeast 139 160 7,000 -180 Level Jacksonville Center
07:53PM 32.3688 -81.5767 125° Southeast  Level FlightAware Approximate
08:00PM 32.2116 -81.3136 125° Southeast  Level FlightAware Approximate
08:01PM 32.1891 -81.2761 125° Southeast  Level FlightAware Approximate
08:02PM 32.1666 -81.2386 125° Southeast  Level FlightAware Approximate
08:03PM 32.1440 -81.2011 125° Southeast  Level FlightAware Approximate
08:04PM 32.1124 -81.1877 190° South  Level FlightAware Approximate
08:05PM 32.0741 -81.1956 190° South  Level FlightAware Approximate
08:06PM 32.0358 -81.2035 190° South  Level FlightAware Approximate
08:07PM 31.9974 -81.2114 190° South  Level FlightAware Approximate
08:08PM 31.9591 -81.2194 190° South  Level FlightAware Approximate
08:08PM 31.8264 -81.2689 189° South 136 157 4,000  Level Jacksonville Center
08:09PM 31.9196 -81.2270 189° South  Level FlightAware Approximate
08:09PM 31.7972 -81.2744 189° South 136 157 4,000  Level Jacksonville Center
08:10PM 31.8801 -81.2345 189° South  Level FlightAware Approximate
08:10PM 31.7575 -81.2825 190° South 136 157 4,000  Level Jacksonville Center
08:11PM 31.8406 -81.2421 189° South  Level FlightAware Approximate
08:11PM 31.7200 -81.2881 187° South 142 163 4,000  Level Jacksonville Center
08:12PM 31.8011 -81.2497 189° South  Level FlightAware Approximate
08:12PM 31.6825 -81.2933 187° South 142 163 4,000  Level Jacksonville Center
08:13PM 31.6492 -81.3014 192° South 142 163 4,000  Level Jacksonville Center
08:14PM 31.6139 -81.3069 188° South 142 163 4,000  Level Jacksonville Center
08:15PM 31.5742 -81.3147 189° South 142 163 4,000  Level Jacksonville Center
08:16PM 31.5389 -81.3228 191° South 142 163 4,000  Level Jacksonville Center
08:17PM 31.5014 -81.3283 187° South 142 163 4,000  Level Jacksonville Center
08:18PM 31.4681 -81.3336 188° South 142 163 4,000 -60 Level Jacksonville Center
08:19PM 31.4325 -81.3417 191° South 135 155 3,900 -420 Descending Jacksonville Center
08:20PM 31.3889 -81.3497 189° South 147 169 3,200 -660 Descending Jacksonville Center
08:21PM 31.3514 -81.3575 190° South 147 169 2,600 -600 Descending Jacksonville Center